sensor_id;sensor_type;location;lat;lon;timestamp;P1;durP1;ratioP1;P2;durP2;ratioP2
10132;SDS011;5106;50.926;7.080;2023-03-15T00:02:01;8.07;;;2.57;;
10132;SDS011;5106;50.926;7.080;2023-03-15T00:04:27;7.50;;;3.17;;
10132;SDS011;5106;50.926;7.080;2023-03-15T00:06:53;9.27;;;3.20;;
10132;SDS011;5106;50.926;7.080;2023-03-15T00:09:19;8.13;;;3.07;;
10132;SDS011;5106;50.926;7.080;2023-03-15T00:11:46;8.40;;;3.03;;
10132;SDS011;5106;50.926;7.080;2023-03-15T00:14:13;8.97;;;3.33;;
10132;SDS011;5106;50.926;7.080;2023-03-15T00:16:39;12.33;;;3.00;;
10132;SDS011;5106;50.926;7.080;2023-03-15T00:19:06;8.30;;;3.27;;
10132;SDS011;5106;50.926;7.080;2023-03-15T00:21:33;7.90;;;2.73;;
10132;SDS011;5106;50.926;7.080;2023-03-15T00:23:59;5.73;;;2.80;;
10132;SDS011;5106;50.926;7.080;2023-03-15T00:26:25;7.50;;;2.60;;
10132;SDS011;5106;50.926;7.080;2023-03-15T00:28:51;8.23;;;2.97;;
10132;SDS011;5106;50.926;7.080;2023-03-15T00:31:20;8.17;;;2.83;;
10132;SDS011;5106;50.926;7.080;2023-03-15T00:33:48;6.63;;;2.37;;
10132;SDS011;5106;50.926;7.080;2023-03-15T00:36:17;8.10;;;2.10;;
10132;SDS011;5106;50.926;7.080;2023-03-15T00:38:43;7.43;;;2.50;;
10132;SDS011;5106;50.926;7.080;2023-03-15T00:41:13;7.87;;;2.60;;
10132;SDS011;5106;50.926;7.080;2023-03-15T00:43:41;9.47;;;3.33;;
10132;SDS011;5106;50.926;7.080;2023-03-15T00:46:07;8.13;;;3.30;;
10132;SDS011;5106;50.926;7.080;2023-03-15T00:48:33;7.90;;;3.10;;
10132;SDS011;5106;50.926;7.080;2023-03-15T00:51:07;10.50;;;3.33;;
10132;SDS011;5106;50.926;7.080;2023-03-15T00:53:33;6.50;;;3.07;;
10132;SDS011;5106;50.926;7.080;2023-03-15T00:56:07;9.10;;;3.67;;
10132;SDS011;5106;50.926;7.080;2023-03-15T00:58:35;9.23;;;3.27;;
10132;SDS011;5106;50.926;7.080;2023-03-15T01:01:04;8.23;;;3.00;;
10132;SDS011;5106;50.926;7.080;2023-03-15T01:03:34;6.23;;;2.90;;
10132;SDS011;5106;50.926;7.080;2023-03-15T01:06:03;7.00;;;3.03;;
10132;SDS011;5106;50.926;7.080;2023-03-15T01:08:30;7.40;;;3.30;;
10132;SDS011;5106;50.926;7.080;2023-03-15T01:11:00;8.50;;;3.20;;
10132;SDS011;5106;50.926;7.080;2023-03-15T01:13:27;4.73;;;3.10;;
10132;SDS011;5106;50.926;7.080;2023-03-15T01:15:52;7.53;;;3.90;;
10132;SDS011;5106;50.926;7.080;2023-03-15T01:18:18;6.23;;;3.30;;
10132;SDS011;5106;50.926;7.080;2023-03-15T01:20:44;7.37;;;3.77;;
10132;SDS011;5106;50.926;7.080;2023-03-15T01:23:09;7.87;;;3.73;;
10132;SDS011;5106;50.926;7.080;2023-03-15T01:25:35;10.83;;;4.17;;
10132;SDS011;5106;50.926;7.080;2023-03-15T01:28:00;8.80;;;3.90;;
10132;SDS011;5106;50.926;7.080;2023-03-15T01:30:26;10.23;;;4.10;;
10132;SDS011;5106;50.926;7.080;2023-03-15T01:32:51;10.93;;;4.37;;
10132;SDS011;5106;50.926;7.080;2023-03-15T01:35:17;8.77;;;3.97;;
10132;SDS011;5106;50.926;7.080;2023-03-15T01:37:42;8.83;;;4.10;;
10132;SDS011;5106;50.926;7.080;2023-03-15T01:40:11;9.27;;;4.30;;
10132;SDS011;5106;50.926;7.080;2023-03-15T01:48:24;11.73;;;4.50;;
10132;SDS011;5106;50.926;7.080;2023-03-15T01:51:05;9.80;;;4.87;;
10132;SDS011;5106;50.926;7.080;2023-03-15T01:53:35;9.83;;;4.70;;
10132;SDS011;5106;50.926;7.080;2023-03-15T01:56:02;8.87;;;4.70;;
10132;SDS011;5106;50.926;7.080;2023-03-15T01:58:29;7.87;;;4.33;;
10132;SDS011;5106;50.926;7.080;2023-03-15T02:00:55;10.03;;;4.60;;
10132;SDS011;5106;50.926;7.080;2023-03-15T02:03:22;8.33;;;4.27;;
10132;SDS011;5106;50.926;7.080;2023-03-15T02:05:54;5.70;;;3.40;;
10132;SDS011;5106;50.926;7.080;2023-03-15T02:08:24;8.23;;;3.73;;
10132;SDS011;5106;50.926;7.080;2023-03-15T02:10:53;6.03;;;3.37;;
10132;SDS011;5106;50.926;7.080;2023-03-15T02:13:23;5.27;;;3.37;;
10132;SDS011;5106;50.926;7.080;2023-03-15T02:15:53;6.87;;;3.03;;
10132;SDS011;5106;50.926;7.080;2023-03-15T02:18:20;6.23;;;3.23;;
10132;SDS011;5106;50.926;7.080;2023-03-15T02:23:24;6.03;;;3.53;;
10132;SDS011;5106;50.926;7.080;2023-03-15T02:28:32;5.33;;;3.13;;
10132;SDS011;5106;50.926;7.080;2023-03-15T02:30:58;6.10;;;3.47;;
10132;SDS011;5106;50.926;7.080;2023-03-15T02:35:55;5.07;;;3.40;;
10132;SDS011;5106;50.926;7.080;2023-03-15T02:38:30;3.77;;;2.60;;
10132;SDS011;5106;50.926;7.080;2023-03-15T02:40:55;4.37;;;2.83;;
10132;SDS011;5106;50.926;7.080;2023-03-15T02:43:25;4.13;;;2.70;;
10132;SDS011;5106;50.926;7.080;2023-03-15T02:45:54;5.33;;;3.40;;
10132;SDS011;5106;50.926;7.080;2023-03-15T02:48:20;4.33;;;2.30;;
10132;SDS011;5106;50.926;7.080;2023-03-15T02:50:46;2.83;;;2.07;;
10132;SDS011;5106;50.926;7.080;2023-03-15T02:53:12;4.70;;;2.30;;
10132;SDS011;5106;50.926;7.080;2023-03-15T02:55:37;2.70;;;2.07;;
10132;SDS011;5106;50.926;7.080;2023-03-15T02:58:03;2.73;;;2.00;;
10132;SDS011;5106;50.926;7.080;2023-03-15T03:00:29;4.27;;;2.30;;
10132;SDS011;5106;50.926;7.080;2023-03-15T03:02:54;3.13;;;2.30;;
10132;SDS011;5106;50.926;7.080;2023-03-15T03:05:20;4.77;;;2.30;;
10132;SDS011;5106;50.926;7.080;2023-03-15T03:07:46;4.17;;;2.40;;
10132;SDS011;5106;50.926;7.080;2023-03-15T03:10:15;3.30;;;2.10;;
10132;SDS011;5106;50.926;7.080;2023-03-15T03:12:42;3.30;;;2.10;;
10132;SDS011;5106;50.926;7.080;2023-03-15T03:15:07;3.70;;;2.23;;
10132;SDS011;5106;50.926;7.080;2023-03-15T03:17:33;4.57;;;2.53;;
10132;SDS011;5106;50.926;7.080;2023-03-15T03:20:03;3.80;;;2.70;;
10132;SDS011;5106;50.926;7.080;2023-03-15T03:22:32;3.40;;;2.50;;
10132;SDS011;5106;50.926;7.080;2023-03-15T03:24:58;3.43;;;2.43;;
10132;SDS011;5106;50.926;7.080;2023-03-15T03:27:24;3.40;;;2.67;;
10132;SDS011;5106;50.926;7.080;2023-03-15T03:29:49;3.27;;;2.40;;
10132;SDS011;5106;50.926;7.080;2023-03-15T03:32:15;4.47;;;2.67;;
10132;SDS011;5106;50.926;7.080;2023-03-15T03:34:41;5.03;;;3.13;;
10132;SDS011;5106;50.926;7.080;2023-03-15T03:37:12;4.00;;;2.53;;
10132;SDS011;5106;50.926;7.080;2023-03-15T03:39:44;4.93;;;3.33;;
10132;SDS011;5106;50.926;7.080;2023-03-15T03:42:10;4.53;;;3.37;;
10132;SDS011;5106;50.926;7.080;2023-03-15T03:44:36;4.33;;;3.40;;
10132;SDS011;5106;50.926;7.080;2023-03-15T03:47:01;4.83;;;3.50;;
10132;SDS011;5106;50.926;7.080;2023-03-15T03:49:27;7.03;;;3.90;;
10132;SDS011;5106;50.926;7.080;2023-03-15T03:51:53;4.73;;;3.60;;
10132;SDS011;5106;50.926;7.080;2023-03-15T03:54:18;5.83;;;4.03;;
10132;SDS011;5106;50.926;7.080;2023-03-15T03:56:45;5.67;;;4.40;;
10132;SDS011;5106;50.926;7.080;2023-03-15T03:59:12;5.53;;;4.20;;
10132;SDS011;5106;50.926;7.080;2023-03-15T04:01:37;5.10;;;4.23;;
10132;SDS011;5106;50.926;7.080;2023-03-15T04:04:03;6.27;;;4.80;;
10132;SDS011;5106;50.926;7.080;2023-03-15T04:06:29;6.90;;;5.00;;
10132;SDS011;5106;50.926;7.080;2023-03-15T04:08:55;8.27;;;5.37;;
10132;SDS011;5106;50.926;7.080;2023-03-15T04:11:21;7.93;;;5.60;;
10132;SDS011;5106;50.926;7.080;2023-03-15T04:13:51;6.83;;;5.47;;
10132;SDS011;5106;50.926;7.080;2023-03-15T04:16:17;7.17;;;5.43;;
10132;SDS011;5106;50.926;7.080;2023-03-15T04:18:43;6.90;;;5.87;;
10132;SDS011;5106;50.926;7.080;2023-03-15T04:21:08;8.10;;;5.77;;
10132;SDS011;5106;50.926;7.080;2023-03-15T04:23:35;8.63;;;6.07;;
10132;SDS011;5106;50.926;7.080;2023-03-15T04:26:01;7.27;;;5.60;;
10132;SDS011;5106;50.926;7.080;2023-03-15T04:28:27;7.83;;;5.93;;
10132;SDS011;5106;50.926;7.080;2023-03-15T04:30:54;8.43;;;5.53;;
10132;SDS011;5106;50.926;7.080;2023-03-15T04:33:22;8.03;;;5.80;;
10132;SDS011;5106;50.926;7.080;2023-03-15T04:35:48;10.47;;;6.43;;
10132;SDS011;5106;50.926;7.080;2023-03-15T04:38:16;7.50;;;5.57;;
10132;SDS011;5106;50.926;7.080;2023-03-15T04:40:43;8.10;;;6.00;;
10132;SDS011;5106;50.926;7.080;2023-03-15T04:43:08;6.87;;;5.77;;
10132;SDS011;5106;50.926;7.080;2023-03-15T04:45:34;8.47;;;5.83;;
10132;SDS011;5106;50.926;7.080;2023-03-15T04:48:00;8.77;;;6.07;;
10132;SDS011;5106;50.926;7.080;2023-03-15T04:50:27;7.50;;;6.40;;
10132;SDS011;5106;50.926;7.080;2023-03-15T04:52:54;7.17;;;5.70;;
10132;SDS011;5106;50.926;7.080;2023-03-15T04:55:21;8.17;;;6.10;;
10132;SDS011;5106;50.926;7.080;2023-03-15T04:57:47;6.97;;;5.53;;
10132;SDS011;5106;50.926;7.080;2023-03-15T05:00:12;7.27;;;5.67;;
10132;SDS011;5106;50.926;7.080;2023-03-15T05:02:39;7.30;;;5.93;;
10132;SDS011;5106;50.926;7.080;2023-03-15T05:05:09;6.83;;;5.40;;
10132;SDS011;5106;50.926;7.080;2023-03-15T05:07:36;9.03;;;6.17;;
10132;SDS011;5106;50.926;7.080;2023-03-15T05:10:02;8.20;;;6.10;;
10132;SDS011;5106;50.926;7.080;2023-03-15T05:12:28;8.10;;;5.73;;
10132;SDS011;5106;50.926;7.080;2023-03-15T05:14:54;8.23;;;5.83;;
10132;SDS011;5106;50.926;7.080;2023-03-15T05:17:20;7.33;;;5.70;;
10132;SDS011;5106;50.926;7.080;2023-03-15T05:19:46;9.13;;;6.37;;
10132;SDS011;5106;50.926;7.080;2023-03-15T05:22:15;7.23;;;5.33;;
10132;SDS011;5106;50.926;7.080;2023-03-15T05:24:42;6.77;;;5.37;;
10132;SDS011;5106;50.926;7.080;2023-03-15T05:27:09;9.43;;;5.50;;
10132;SDS011;5106;50.926;7.080;2023-03-15T05:29:36;8.07;;;5.80;;
10132;SDS011;5106;50.926;7.080;2023-03-15T05:32:01;9.27;;;6.00;;
10132;SDS011;5106;50.926;7.080;2023-03-15T05:34:28;10.50;;;6.40;;
10132;SDS011;5106;50.926;7.080;2023-03-15T05:36:56;7.57;;;5.83;;
10132;SDS011;5106;50.926;7.080;2023-03-15T05:39:22;7.60;;;6.07;;
10132;SDS011;5106;50.926;7.080;2023-03-15T05:41:48;8.07;;;6.70;;
10132;SDS011;5106;50.926;7.080;2023-03-15T05:44:13;8.13;;;5.97;;
10132;SDS011;5106;50.926;7.080;2023-03-15T05:46:39;9.83;;;6.50;;
10132;SDS011;5106;50.926;7.080;2023-03-15T05:49:05;9.97;;;6.73;;
10132;SDS011;5106;50.926;7.080;2023-03-15T05:51:30;9.10;;;6.43;;
10132;SDS011;5106;50.926;7.080;2023-03-15T05:53:56;9.00;;;6.50;;
10132;SDS011;5106;50.926;7.080;2023-03-15T05:56:21;7.40;;;5.97;;
10132;SDS011;5106;50.926;7.080;2023-03-15T05:58:47;10.23;;;6.73;;
10132;SDS011;5106;50.926;7.080;2023-03-15T06:01:12;10.73;;;6.93;;
10132;SDS011;5106;50.926;7.080;2023-03-15T06:03:38;7.53;;;6.10;;
10132;SDS011;5106;50.926;7.080;2023-03-15T06:06:03;11.17;;;7.00;;
10132;SDS011;5106;50.926;7.080;2023-03-15T06:08:29;9.50;;;6.73;;
10132;SDS011;5106;50.926;7.080;2023-03-15T06:10:55;8.93;;;6.40;;
10132;SDS011;5106;50.926;7.080;2023-03-15T06:13:20;10.03;;;6.90;;
10132;SDS011;5106;50.926;7.080;2023-03-15T06:15:46;10.33;;;6.90;;
10132;SDS011;5106;50.926;7.080;2023-03-15T06:18:12;9.80;;;6.20;;
10132;SDS011;5106;50.926;7.080;2023-03-15T06:20:38;9.07;;;6.60;;
10132;SDS011;5106;50.926;7.080;2023-03-15T06:23:04;11.03;;;6.80;;
10132;SDS011;5106;50.926;7.080;2023-03-15T06:25:31;10.13;;;7.40;;
10132;SDS011;5106;50.926;7.080;2023-03-15T06:27:56;9.90;;;7.17;;
10132;SDS011;5106;50.926;7.080;2023-03-15T06:30:22;9.13;;;6.90;;
10132;SDS011;5106;50.926;7.080;2023-03-15T06:32:48;8.43;;;6.83;;
10132;SDS011;5106;50.926;7.080;2023-03-15T06:35:13;8.00;;;7.20;;
10132;SDS011;5106;50.926;7.080;2023-03-15T06:37:39;8.83;;;6.47;;
10132;SDS011;5106;50.926;7.080;2023-03-15T06:40:07;8.53;;;7.00;;
10132;SDS011;5106;50.926;7.080;2023-03-15T06:42:33;10.20;;;7.53;;
10132;SDS011;5106;50.926;7.080;2023-03-15T06:44:59;10.03;;;7.43;;
10132;SDS011;5106;50.926;7.080;2023-03-15T06:47:25;8.67;;;7.03;;
10132;SDS011;5106;50.926;7.080;2023-03-15T06:49:51;8.97;;;7.00;;
10132;SDS011;5106;50.926;7.080;2023-03-15T06:52:16;9.20;;;6.90;;
10132;SDS011;5106;50.926;7.080;2023-03-15T06:54:42;10.17;;;7.23;;
10132;SDS011;5106;50.926;7.080;2023-03-15T06:57:08;9.53;;;6.93;;
10132;SDS011;5106;50.926;7.080;2023-03-15T06:59:34;9.77;;;7.17;;
10132;SDS011;5106;50.926;7.080;2023-03-15T07:01:59;12.90;;;7.60;;
10132;SDS011;5106;50.926;7.080;2023-03-15T07:04:25;9.87;;;7.03;;
10132;SDS011;5106;50.926;7.080;2023-03-15T07:06:51;10.10;;;7.47;;
10132;SDS011;5106;50.926;7.080;2023-03-15T07:09:16;10.87;;;8.87;;
10132;SDS011;5106;50.926;7.080;2023-03-15T07:11:42;11.67;;;9.30;;
10132;SDS011;5106;50.926;7.080;2023-03-15T07:14:08;12.57;;;8.77;;
10132;SDS011;5106;50.926;7.080;2023-03-15T07:16:33;9.63;;;8.60;;
10132;SDS011;5106;50.926;7.080;2023-03-15T07:18:59;10.77;;;7.83;;
10132;SDS011;5106;50.926;7.080;2023-03-15T07:21:25;12.27;;;9.53;;
10132;SDS011;5106;50.926;7.080;2023-03-15T07:23:51;10.37;;;9.00;;
10132;SDS011;5106;50.926;7.080;2023-03-15T07:26:17;12.57;;;9.60;;
10132;SDS011;5106;50.926;7.080;2023-03-15T07:28:42;11.03;;;9.27;;
10132;SDS011;5106;50.926;7.080;2023-03-15T07:31:08;14.00;;;9.33;;
10132;SDS011;5106;50.926;7.080;2023-03-15T07:33:35;13.13;;;9.97;;
10132;SDS011;5106;50.926;7.080;2023-03-15T07:36:02;11.60;;;9.00;;
10132;SDS011;5106;50.926;7.080;2023-03-15T07:38:29;11.70;;;8.93;;
10132;SDS011;5106;50.926;7.080;2023-03-15T07:40:55;10.27;;;8.37;;
10132;SDS011;5106;50.926;7.080;2023-03-15T07:43:21;13.63;;;9.73;;
10132;SDS011;5106;50.926;7.080;2023-03-15T07:45:48;12.60;;;9.20;;
10132;SDS011;5106;50.926;7.080;2023-03-15T07:48:13;12.77;;;9.10;;
10132;SDS011;5106;50.926;7.080;2023-03-15T07:50:39;10.13;;;8.20;;
10132;SDS011;5106;50.926;7.080;2023-03-15T07:53:06;12.03;;;9.43;;
10132;SDS011;5106;50.926;7.080;2023-03-15T07:55:32;12.80;;;9.23;;
10132;SDS011;5106;50.926;7.080;2023-03-15T07:57:59;12.07;;;9.40;;
10132;SDS011;5106;50.926;7.080;2023-03-15T08:00:25;13.07;;;9.33;;
10132;SDS011;5106;50.926;7.080;2023-03-15T08:02:51;12.33;;;9.30;;
10132;SDS011;5106;50.926;7.080;2023-03-15T08:05:16;11.70;;;9.33;;
10132;SDS011;5106;50.926;7.080;2023-03-15T08:07:46;13.40;;;10.20;;
10132;SDS011;5106;50.926;7.080;2023-03-15T08:10:13;12.77;;;10.07;;
10132;SDS011;5106;50.926;7.080;2023-03-15T08:12:40;12.67;;;10.07;;
10132;SDS011;5106;50.926;7.080;2023-03-15T08:15:10;14.83;;;10.63;;
10132;SDS011;5106;50.926;7.080;2023-03-15T08:17:37;13.73;;;10.63;;
10132;SDS011;5106;50.926;7.080;2023-03-15T08:20:04;14.27;;;10.20;;
10132;SDS011;5106;50.926;7.080;2023-03-15T08:22:30;13.23;;;10.50;;
10132;SDS011;5106;50.926;7.080;2023-03-15T08:24:56;15.73;;;10.63;;
10132;SDS011;5106;50.926;7.080;2023-03-15T08:27:23;16.83;;;11.20;;
10132;SDS011;5106;50.926;7.080;2023-03-15T08:29:49;15.67;;;11.53;;
10132;SDS011;5106;50.926;7.080;2023-03-15T08:32:16;14.47;;;11.20;;
10132;SDS011;5106;50.926;7.080;2023-03-15T08:34:42;14.00;;;11.20;;
10132;SDS011;5106;50.926;7.080;2023-03-15T08:37:09;14.17;;;11.20;;
10132;SDS011;5106;50.926;7.080;2023-03-15T08:39:36;13.27;;;10.33;;
10132;SDS011;5106;50.926;7.080;2023-03-15T08:42:02;13.90;;;10.10;;
10132;SDS011;5106;50.926;7.080;2023-03-15T08:44:28;13.10;;;9.13;;
10132;SDS011;5106;50.926;7.080;2023-03-15T08:46:53;13.10;;;9.33;;
10132;SDS011;5106;50.926;7.080;2023-03-15T08:49:19;14.37;;;10.40;;
10132;SDS011;5106;50.926;7.080;2023-03-15T08:51:44;13.70;;;10.33;;
10132;SDS011;5106;50.926;7.080;2023-03-15T08:54:10;14.23;;;9.40;;
10132;SDS011;5106;50.926;7.080;2023-03-15T08:56:38;14.77;;;9.53;;
10132;SDS011;5106;50.926;7.080;2023-03-15T08:59:04;12.20;;;9.23;;
10132;SDS011;5106;50.926;7.080;2023-03-15T09:01:29;13.23;;;9.10;;
10132;SDS011;5106;50.926;7.080;2023-03-15T09:03:55;12.47;;;9.07;;
10132;SDS011;5106;50.926;7.080;2023-03-15T09:06:21;11.87;;;8.03;;
10132;SDS011;5106;50.926;7.080;2023-03-15T09:08:46;15.53;;;8.83;;
10132;SDS011;5106;50.926;7.080;2023-03-15T09:11:12;13.27;;;7.53;;
10132;SDS011;5106;50.926;7.080;2023-03-15T09:13:37;11.93;;;7.37;;
10132;SDS011;5106;50.926;7.080;2023-03-15T09:16:03;9.93;;;6.53;;
10132;SDS011;5106;50.926;7.080;2023-03-15T09:18:29;12.23;;;6.97;;
10132;SDS011;5106;50.926;7.080;2023-03-15T09:20:55;10.00;;;6.53;;
10132;SDS011;5106;50.926;7.080;2023-03-15T09:23:21;10.70;;;6.63;;
10132;SDS011;5106;50.926;7.080;2023-03-15T09:25:47;11.00;;;6.60;;
10132;SDS011;5106;50.926;7.080;2023-03-15T09:28:15;10.50;;;6.87;;
10132;SDS011;5106;50.926;7.080;2023-03-15T09:30:41;10.23;;;6.47;;
10132;SDS011;5106;50.926;7.080;2023-03-15T09:33:07;7.90;;;6.13;;
10132;SDS011;5106;50.926;7.080;2023-03-15T09:35:33;9.50;;;6.23;;
10132;SDS011;5106;50.926;7.080;2023-03-15T09:37:59;13.27;;;6.57;;
10132;SDS011;5106;50.926;7.080;2023-03-15T09:40:25;12.90;;;6.80;;
10132;SDS011;5106;50.926;7.080;2023-03-15T09:48:29;7.60;;;5.27;;
10132;SDS011;5106;50.926;7.080;2023-03-15T09:53:56;8.50;;;4.50;;
10132;SDS011;5106;50.926;7.080;2023-03-15T09:58:54;5.70;;;4.07;;
10132;SDS011;5106;50.926;7.080;2023-03-15T10:01:24;5.17;;;3.90;;
10132;SDS011;5106;50.926;7.080;2023-03-15T10:03:56;7.33;;;4.50;;
10132;SDS011;5106;50.926;7.080;2023-03-15T10:06:28;6.20;;;3.70;;
10132;SDS011;5106;50.926;7.080;2023-03-15T10:08:59;5.70;;;4.23;;
10132;SDS011;5106;50.926;7.080;2023-03-15T10:11:33;5.83;;;4.50;;
10132;SDS011;5106;50.926;7.080;2023-03-15T10:16:43;5.30;;;3.77;;
10132;SDS011;5106;50.926;7.080;2023-03-15T10:27:20;11.27;;;4.03;;
10132;SDS011;5106;50.926;7.080;2023-03-15T10:29:51;9.60;;;4.20;;
10132;SDS011;5106;50.926;7.080;2023-03-15T10:32:20;5.67;;;3.93;;
10132;SDS011;5106;50.926;7.080;2023-03-15T10:34:53;6.67;;;3.90;;
10132;SDS011;5106;50.926;7.080;2023-03-15T10:37:22;7.97;;;3.40;;
10132;SDS011;5106;50.926;7.080;2023-03-15T10:39:49;4.13;;;3.07;;
10132;SDS011;5106;50.926;7.080;2023-03-15T10:42:29;7.47;;;3.50;;
10132;SDS011;5106;50.926;7.080;2023-03-15T10:44:57;4.50;;;3.23;;
10132;SDS011;5106;50.926;7.080;2023-03-15T10:47:25;7.90;;;4.07;;
10132;SDS011;5106;50.926;7.080;2023-03-15T10:49:55;4.53;;;3.30;;
10132;SDS011;5106;50.926;7.080;2023-03-15T10:55:24;5.43;;;3.37;;
10132;SDS011;5106;50.926;7.080;2023-03-15T10:57:53;7.90;;;3.80;;
10132;SDS011;5106;50.926;7.080;2023-03-15T11:05:53;4.97;;;2.80;;
10132;SDS011;5106;50.926;7.080;2023-03-15T11:08:21;5.40;;;2.97;;
10132;SDS011;5106;50.926;7.080;2023-03-15T11:10:56;5.60;;;3.00;;
10132;SDS011;5106;50.926;7.080;2023-03-15T11:18:35;4.73;;;2.73;;
10132;SDS011;5106;50.926;7.080;2023-03-15T11:21:07;4.67;;;2.57;;
10132;SDS011;5106;50.926;7.080;2023-03-15T11:23:38;4.37;;;2.90;;
10132;SDS011;5106;50.926;7.080;2023-03-15T11:26:08;6.50;;;2.77;;
10132;SDS011;5106;50.926;7.080;2023-03-15T11:28:41;5.30;;;2.23;;
10132;SDS011;5106;50.926;7.080;2023-03-15T11:31:23;4.70;;;2.47;;
10132;SDS011;5106;50.926;7.080;2023-03-15T11:33:52;4.57;;;2.50;;
10132;SDS011;5106;50.926;7.080;2023-03-15T11:36:22;3.93;;;2.00;;
10132;SDS011;5106;50.926;7.080;2023-03-15T11:38:52;3.23;;;2.40;;
10132;SDS011;5106;50.926;7.080;2023-03-15T11:49:00;4.23;;;2.53;;
10132;SDS011;5106;50.926;7.080;2023-03-15T11:51:32;4.93;;;2.27;;
10132;SDS011;5106;50.926;7.080;2023-03-15T11:59:11;3.43;;;1.93;;
10132;SDS011;5106;50.926;7.080;2023-03-15T12:01:41;4.27;;;1.90;;
10132;SDS011;5106;50.926;7.080;2023-03-15T12:06:53;3.70;;;1.50;;
10132;SDS011;5106;50.926;7.080;2023-03-15T12:12:02;3.90;;;1.60;;
10132;SDS011;5106;50.926;7.080;2023-03-15T12:19:55;3.07;;;1.50;;
10132;SDS011;5106;50.926;7.080;2023-03-15T12:22:35;4.03;;;1.50;;
10132;SDS011;5106;50.926;7.080;2023-03-15T12:25:13;3.53;;;1.63;;
10132;SDS011;5106;50.926;7.080;2023-03-15T12:27:50;7.57;;;2.10;;
10132;SDS011;5106;50.926;7.080;2023-03-15T12:30:23;1.53;;;1.23;;
10132;SDS011;5106;50.926;7.080;2023-03-15T12:32:55;3.60;;;1.60;;
10132;SDS011;5106;50.926;7.080;2023-03-15T12:35:22;2.63;;;1.53;;
10132;SDS011;5106;50.926;7.080;2023-03-15T12:37:52;4.40;;;1.67;;
10132;SDS011;5106;50.926;7.080;2023-03-15T12:55:47;2.43;;;1.40;;
10132;SDS011;5106;50.926;7.080;2023-03-15T12:58:15;4.23;;;1.67;;
10132;SDS011;5106;50.926;7.080;2023-03-15T13:00:42;5.17;;;1.73;;
10132;SDS011;5106;50.926;7.080;2023-03-15T13:03:15;5.40;;;1.80;;
10132;SDS011;5106;50.926;7.080;2023-03-15T13:05:51;4.47;;;1.90;;
10132;SDS011;5106;50.926;7.080;2023-03-15T13:08:29;4.47;;;1.70;;
10132;SDS011;5106;50.926;7.080;2023-03-15T13:11:12;4.97;;;1.87;;
10132;SDS011;5106;50.926;7.080;2023-03-15T13:30:27;2.90;;;1.37;;
10132;SDS011;5106;50.926;7.080;2023-03-15T13:36:04;3.43;;;1.60;;
10132;SDS011;5106;50.926;7.080;2023-03-15T13:41:24;3.77;;;1.30;;
10132;SDS011;5106;50.926;7.080;2023-03-15T13:43:55;2.17;;;1.27;;
10132;SDS011;5106;50.926;7.080;2023-03-15T13:46:23;2.50;;;1.40;;
10132;SDS011;5106;50.926;7.080;2023-03-15T13:48:51;1.90;;;1.17;;
10132;SDS011;5106;50.926;7.080;2023-03-15T13:53:55;4.17;;;1.73;;
10132;SDS011;5106;50.926;7.080;2023-03-15T13:56:28;3.63;;;1.40;;
10132;SDS011;5106;50.926;7.080;2023-03-15T13:58:56;4.23;;;1.33;;
10132;SDS011;5106;50.926;7.080;2023-03-15T14:01:23;3.53;;;1.57;;
10132;SDS011;5106;50.926;7.080;2023-03-15T14:03:59;3.10;;;1.53;;
10132;SDS011;5106;50.926;7.080;2023-03-15T14:06:29;4.80;;;1.50;;
10132;SDS011;5106;50.926;7.080;2023-03-15T14:09:18;3.50;;;1.30;;
10132;SDS011;5106;50.926;7.080;2023-03-15T14:11:43;3.13;;;1.20;;
10132;SDS011;5106;50.926;7.080;2023-03-15T14:14:19;3.83;;;1.30;;
10132;SDS011;5106;50.926;7.080;2023-03-15T14:16:50;4.37;;;1.20;;
10132;SDS011;5106;50.926;7.080;2023-03-15T14:19:22;3.27;;;1.20;;
10132;SDS011;5106;50.926;7.080;2023-03-15T14:21:53;1.73;;;0.90;;
10132;SDS011;5106;50.926;7.080;2023-03-15T14:26:52;1.77;;;1.17;;
10132;SDS011;5106;50.926;7.080;2023-03-15T14:29:28;1.90;;;1.30;;
10132;SDS011;5106;50.926;7.080;2023-03-15T14:32:03;2.67;;;1.23;;
10132;SDS011;5106;50.926;7.080;2023-03-15T14:34:35;3.03;;;1.00;;
10132;SDS011;5106;50.926;7.080;2023-03-15T14:40:17;5.13;;;1.30;;
10132;SDS011;5106;50.926;7.080;2023-03-15T14:42:51;2.37;;;1.20;;
10132;SDS011;5106;50.926;7.080;2023-03-15T14:45:17;3.53;;;1.40;;
10132;SDS011;5106;50.926;7.080;2023-03-15T14:47:53;3.90;;;1.30;;
10132;SDS011;5106;50.926;7.080;2023-03-15T14:50:24;4.73;;;1.70;;
10132;SDS011;5106;50.926;7.080;2023-03-15T14:52:52;4.23;;;1.30;;
10132;SDS011;5106;50.926;7.080;2023-03-15T14:55:19;2.67;;;1.20;;
10132;SDS011;5106;50.926;7.080;2023-03-15T14:57:47;6.97;;;1.50;;
10132;SDS011;5106;50.926;7.080;2023-03-15T15:00:13;2.00;;;1.30;;
10132;SDS011;5106;50.926;7.080;2023-03-15T15:02:44;2.73;;;1.20;;
10132;SDS011;5106;50.926;7.080;2023-03-15T15:05:23;3.27;;;1.20;;
10132;SDS011;5106;50.926;7.080;2023-03-15T15:07:52;2.27;;;1.20;;
10132;SDS011;5106;50.926;7.080;2023-03-15T15:10:25;7.60;;;3.93;;
10132;SDS011;5106;50.926;7.080;2023-03-15T15:12:52;5.20;;;2.30;;
10132;SDS011;5106;50.926;7.080;2023-03-15T15:15:18;3.27;;;2.20;;
10132;SDS011;5106;50.926;7.080;2023-03-15T15:17:46;3.20;;;1.50;;
10132;SDS011;5106;50.926;7.080;2023-03-15T15:20:12;3.20;;;1.48;;
10132;SDS011;5106;50.926;7.080;2023-03-15T15:22:40;2.27;;;1.47;;
10132;SDS011;5106;50.926;7.080;2023-03-15T15:25:19;3.27;;;1.20;;
10132;SDS011;5106;50.926;7.080;2023-03-15T15:27:47;2.30;;;1.40;;
10132;SDS011;5106;50.926;7.080;2023-03-15T15:30:16;6.00;;;1.53;;
10132;SDS011;5106;50.926;7.080;2023-03-15T15:32:46;2.80;;;1.53;;
10132;SDS011;5106;50.926;7.080;2023-03-15T15:35:12;3.37;;;1.37;;
10132;SDS011;5106;50.926;7.080;2023-03-15T15:37:40;4.50;;;1.60;;
10132;SDS011;5106;50.926;7.080;2023-03-15T15:40:13;2.10;;;1.57;;
10132;SDS011;5106;50.926;7.080;2023-03-15T15:42:46;3.83;;;1.47;;
10132;SDS011;5106;50.926;7.080;2023-03-15T15:45:14;1.97;;;1.23;;
10132;SDS011;5106;50.926;7.080;2023-03-15T15:47:40;1.53;;;1.20;;
10132;SDS011;5106;50.926;7.080;2023-03-15T15:50:07;1.93;;;1.20;;
10132;SDS011;5106;50.926;7.080;2023-03-15T15:52:39;3.23;;;1.30;;
10132;SDS011;5106;50.926;7.080;2023-03-15T15:55:10;1.80;;;1.20;;
10132;SDS011;5106;50.926;7.080;2023-03-15T15:57:41;3.03;;;1.20;;
10132;SDS011;5106;50.926;7.080;2023-03-15T16:00:13;1.80;;;0.77;;
10132;SDS011;5106;50.926;7.080;2023-03-15T16:02:43;2.15;;;1.25;;
10132;SDS011;5106;50.926;7.080;2023-03-15T16:05:09;3.00;;;1.40;;
10132;SDS011;5106;50.926;7.080;2023-03-15T16:07:35;2.38;;;1.33;;
10132;SDS011;5106;50.926;7.080;2023-03-15T16:10:02;2.55;;;1.05;;
10132;SDS011;5106;50.926;7.080;2023-03-15T16:12:28;3.92;;;1.33;;
10132;SDS011;5106;50.926;7.080;2023-03-15T16:14:56;2.50;;;1.30;;
10132;SDS011;5106;50.926;7.080;2023-03-15T16:17:22;3.30;;;1.33;;
10132;SDS011;5106;50.926;7.080;2023-03-15T16:19:49;2.60;;;1.05;;
10132;SDS011;5106;50.926;7.080;2023-03-15T16:22:16;2.83;;;1.20;;
10132;SDS011;5106;50.926;7.080;2023-03-15T16:24:45;2.97;;;1.10;;
10132;SDS011;5106;50.926;7.080;2023-03-15T16:27:16;3.95;;;1.23;;
10132;SDS011;5106;50.926;7.080;2023-03-15T16:29:45;4.18;;;1.30;;
10132;SDS011;5106;50.926;7.080;2023-03-15T16:32:13;4.07;;;1.30;;
10132;SDS011;5106;50.926;7.080;2023-03-15T16:34:46;1.10;;;0.82;;
10132;SDS011;5106;50.926;7.080;2023-03-15T16:37:20;2.92;;;1.08;;
10132;SDS011;5106;50.926;7.080;2023-03-15T16:39:52;3.25;;;1.20;;
10132;SDS011;5106;50.926;7.080;2023-03-15T16:42:21;2.40;;;1.23;;
10132;SDS011;5106;50.926;7.080;2023-03-15T16:44:49;4.70;;;1.30;;
10132;SDS011;5106;50.926;7.080;2023-03-15T16:47:15;3.10;;;1.20;;
10132;SDS011;5106;50.926;7.080;2023-03-15T16:49:41;2.63;;;1.00;;
10132;SDS011;5106;50.926;7.080;2023-03-15T16:52:06;3.17;;;1.27;;
10132;SDS011;5106;50.926;7.080;2023-03-15T16:54:34;1.50;;;1.07;;
10132;SDS011;5106;50.926;7.080;2023-03-15T16:57:00;2.47;;;1.20;;
10132;SDS011;5106;50.926;7.080;2023-03-15T16:59:26;2.77;;;1.33;;
10132;SDS011;5106;50.926;7.080;2023-03-15T17:01:52;2.43;;;1.13;;